Free Trial

Tempur Sealy International (TPX) Institutional Ownership

$46.99
-1.86 (-3.81%)
(As of 04:30 PM ET)

Institutional Ownership Changes (13F Filings) for Tempur Sealy International (NYSE:TPX)

Current
Institutional Ownership
Percentage
99.86%
Number of
Institutional Buyers
(last 12 months)
170
Total
Institutional Inflows
(last 12 months)
$1.08B
Number of
Institutional Sellers
(last 12 months)
121
Total
Institutional Outflows
(last 12 months)
$860.57M
Get TPX Insider Trade Alerts

Want to know when executives and insiders are buying or selling Tempur Sealy International stock? Sign up for InsiderTrades.com's daily newsletter to get the latest insider transactions delivered to your inbox daily.

Skip Chart & View Institutional Buying and Selling Data

TPX Institutional Buying and Selling by Quarter

Tempur Sealy International Major Shareholders & Ownership History

Reporting DateMajor Shareholder NameShares HeldMarket Value% of PortfolioQuarterly Change in SharesOwnership in CompanyDetails
5/28/2024 Boston Partners7,382,078$418.71M0.5%-7.5%4.252%
5/24/2024 Cetera Advisors LLC7,278$414K0.0%N/A0.004%
5/22/2024 Burney Co.98,336$5.59M0.2%-8.0%0.057%
5/17/2024 Vista Investment Partners LLC36,776$2.09M0.7%N/A0.021%
5/17/2024 Comerica Bank68,825$3.91M0.0%-3.8%0.040%
5/17/2024 Tidal Investments LLC19,701$1.12M0.0%N/A0.011%
5/16/2024 California State Teachers Retirement System172,682$9.81M0.0%-5.2%0.099%
5/16/2024 Interval Partners LP261,004$14.83M0.4%-8.5%0.150%
5/16/2024 Kinetic Partners Management LP1,418,304$80.59M5.6%+14.0%0.817%
5/16/2024 Zurich Insurance Group Ltd FI23,200$1.32M0.0%N/A0.013%
5/15/2024 Public Employees Retirement System of Ohio63,853$3.63M0.0%-8.6%0.037%
5/15/2024 Steadfast Capital Management LP1,610,435$91.51M2.1%-24.9%0.928%
5/15/2024 Public Employees Retirement Association of Colorado18,349$1.04M0.0%-8.8%0.011%
5/15/2024 Price T Rowe Associates Inc. MD1,314,131$74.67M0.0%-0.2%0.757%
5/15/2024 BOKF NA91,000$5.05M0.1%-57.9%0.052%
5/15/2024 Envoi LLC5,290$301K0.7%N/A0.003%
5/14/2024 Toronto Dominion Bank32,820$1.87M0.0%+0.6%0.019%
5/14/2024 Vident Advisory LLC236,006$13.41M0.3%N/A0.136%
5/14/2024 Shell Asset Management Co.10,612$603K0.0%-3.3%0.006%
5/14/2024 MQS Management LLC7,713$438K0.3%N/A0.004%
5/14/2024 CANADA LIFE ASSURANCE Co129,001$7.33M0.0%+1.1%0.074%
5/14/2024 American International Group Inc.228,283$12.97M0.0%-2.0%0.131%
5/13/2024 O Shaughnessy Asset Management LLC19,493$1.11M0.0%+6.4%0.011%
5/13/2024 PAX Financial Group LLC12,736$724K0.1%N/A0.007%
5/11/2024 Edgestream Partners L.P.18,180$1.03M0.1%-19.6%0.010%
5/10/2024 Vanguard Group Inc.16,068,006$912.98M0.0%+0.9%9.255%
5/10/2024 Mitsubishi UFJ Trust & Banking Corp11,314$643K0.0%+7.2%0.007%
5/10/2024 J.Safra Asset Management Corp1,028$58K0.0%+80.0%0.001%
5/10/2024 Cumberland Partners Ltd121,535$6.91M0.5%-23.8%0.070%
5/9/2024 State Board of Administration of Florida Retirement System213,384$12.12M0.0%+5.4%0.123%
5/8/2024 Entropy Technologies LP19,402$1.10M0.1%+11.5%0.011%
5/8/2024 ProShare Advisors LLC8,404$478K0.0%-7.3%0.005%
5/8/2024 Russell Investments Group Ltd.7,182$408K0.0%-35.1%0.004%
5/8/2024 Qsemble Capital Management LP25,711$1.46M0.3%+103.2%0.015%
5/8/2024 Headlands Technologies LLC3,119$177K0.0%N/A0.002%
5/8/2024 Inspire Investing LLC13,048$741K0.1%+73.5%0.008%
5/8/2024 Inspire Advisors LLC20,257$1.15M0.2%N/A0.012%
5/7/2024 Meeder Asset Management Inc.28,911$1.64M0.1%+346.2%0.017%
5/7/2024 Sei Investments Co.19,234$1.09M0.0%+31.8%0.011%
5/7/2024 Swiss National Bank340,200$19.33M0.0%+0.3%0.196%
Loophole for Biden’s New Digital Currency Plan (Ad)

Have you heard about Executive Order 14067? This lesser-known order introduced the Digital Dollar, an alarming plan aimed at controlling your spending. And it gets even more concerning: in November, the Federal Government and banks initiated a test program to implement the Digital Dollar.

Click here to receive your complimentary Wealth Management Guide >>
5/7/2024 SG Americas Securities LLC10,119$575K0.0%-46.6%0.006%
5/7/2024 Empowered Funds LLC22,705$1.29M0.0%+10.7%0.013%
5/7/2024 Sciencast Management LP18,495$1.05M0.6%N/A0.011%
5/6/2024 Quantbot Technologies LP39,360$2.24M0.1%N/A0.023%
5/6/2024 Manchester Capital Management LLC2,835$161K0.0%N/A0.002%
5/6/2024 Hemenway Trust Co LLC31,532$1.79M0.2%-24.1%0.018%
5/6/2024 Texas Permanent School Fund Corp150,772$8.57M0.1%+1.3%0.087%
5/3/2024 Coronation Fund Managers Ltd.92,157$5.24M0.1%-22.4%0.053%
5/2/2024 Mutual of America Capital Management LLC102,648$5.83M0.1%-3.6%0.059%
5/2/2024 Hanlon Investment Management Inc.13,789$784K0.2%-8.1%0.008%
5/1/2024 Janney Montgomery Scott LLC25,263$1.44M0.0%N/A0.015%
5/1/2024 BNP Paribas Financial Markets94,925$5.39M0.0%+431.5%0.055%
4/30/2024 Retirement Systems of Alabama216,333$12.29M0.0%+0.3%0.125%
4/30/2024 Van ECK Associates Corp87,669$4.98M0.0%+36.5%0.050%
4/30/2024 Argent Capital Management LLC64,940$3.69M0.1%+0.8%0.037%
4/30/2024 Allspring Global Investments Holdings LLC453$26K0.0%N/A0.000%
4/29/2024 Principal Financial Group Inc.648,880$36.87M0.0%+2.4%0.374%
4/27/2024 K.J. Harrison & Partners Inc39,000$2.22M0.3%-2.5%0.022%
4/26/2024 Securian Asset Management Inc.14,167$805K0.0%-2.2%0.008%
4/26/2024 Yousif Capital Management LLC80,259$4.56M0.1%-3.3%0.046%
4/26/2024 SYSTM Wealth Solutions LLC26,957$1.53M0.2%-15.3%0.016%
4/25/2024 New York State Teachers Retirement System225,483$12.81M0.0%-3.1%0.130%
4/23/2024 Louisiana State Employees Retirement System49,600$2.82M0.1%+2.5%0.029%
4/23/2024 Amalgamated Bank111,779$6.35M0.1%-8.9%0.064%
4/23/2024 Raymond James Financial Services Advisors Inc.33,205$1.89M0.0%-8.5%0.019%
4/22/2024 Nilsine Partners LLC183,702$10.44M1.4%+1.1%0.106%
4/22/2024 Donaldson Capital Management LLC35,044$1.99M0.1%+21.0%0.020%
4/22/2024 Raymond James & Associates445,019$25.29M0.0%+0.6%0.256%
4/22/2024 Zeno Equity Partners LLP328,265$18.65M4.1%+37.2%0.189%
4/19/2024 Meadow Creek Wealth Advisors LLC8,850$503K0.3%N/A0.005%
4/19/2024 Handelsinvest Investeringsforvaltning4,406$250K0.1%-34.2%0.003%
4/18/2024 State of Michigan Retirement System42,338$2.41M0.0%+2.4%0.024%
4/18/2024 Allspring Global Investments Holdings LLC453$26K0.0%N/A0.000%
4/18/2024 Diversified Trust Co61,974$3.52M0.1%+17.0%0.036%
4/17/2024 Strata Wealth Advisors LLC22,063$1.25M0.4%-60.2%0.013%
4/16/2024 Artemis Investment Management LLP124,561$7.08M0.1%N/A0.072%
4/12/2024 Salvus Wealth Management LLC78,434$4.46M3.0%-1.1%0.045%
4/9/2024 Rise Advisors LLC473$27K0.0%N/A0.000%
4/5/2024 First Hawaiian Bank18,042$1.03M0.0%-17.3%0.010%
4/5/2024 GAMMA Investing LLC2,635$150K0.0%+13.9%0.002%
4/5/2024 CWM LLC2,272$129K0.0%-82.8%0.001%
3/11/2024 Vanguard Group Inc.15,924,287$811.66M0.0%+0.7%9.173%
2/28/2024 American International Group Inc.232,953$11.87M0.0%-4.1%0.134%
2/27/2024 Zeno Equity Partners LLP239,316$12.20M2.9%N/A0.138%
2/26/2024 Teachers Retirement System of The State of Kentucky56,992$2.91M0.0%-4.5%0.033%
2/16/2024 Winslow Asset Management Inc.4,040$206K0.0%N/A0.002%
2/15/2024 Prelude Capital Management LLC163,420$8.33M0.6%-15.9%0.095%
2/15/2024 Forest Avenue Capital Management LP401,300$20.45M6.9%N/A0.233%
2/15/2024 Goodnow Investment Group LLC773,677$39.43M5.5%+47.9%0.449%
2/15/2024 HAP Trading LLC42,034$2.14M0.3%+72.1%0.024%
Could Elon Musk’s New A.I. Device Be Bigger Than the iPhone? (Ad)

Could Elon Musk's New AI Device Be Bigger Than the iPhone? On January 28 of 2024, Elon Musk officially launched an Artificial Intelligence experiment known as PRIME...

Click below to get all the details.
2/15/2024 Browning West LP12,611,189$642.79M69.2%+7.0%7.321%
2/15/2024 Argent Capital Management LLC64,435$3.28M0.1%+1.0%0.037%
2/14/2024 SW Investment Management LLC500,000$25.49M8.8%+78.6%0.290%
2/14/2024 Bridgewater Associates LP258,648$13.18M0.1%+20.2%0.150%
2/14/2024 Junto Capital Management LP736,417$37.54M0.8%-38.9%0.427%
2/14/2024 Eminence Capital LP1,739,290$88.65M1.3%-31.4%1.010%
2/14/2024 Tabor Asset Management LP212,342$10.82M5.1%+16.1%0.123%
2/14/2024 Ratan Capital Management LP40,000$2.04M1.3%N/A0.023%
2/14/2024 CenterBook Partners LP19,174$977K0.1%-65.3%0.011%
2/13/2024Platform Technology Partners9,665$503K0.2%N/A0.006%
(Data available from 1/1/2016 forward)

TPX Institutional Ownership - Frequently Asked Questions

Who are the largest shareholders of TPX shares?

During the previous two years, 322 institutional investors and hedge funds held shares of Tempur Sealy International. The most heavily invested institutionals were Vanguard Group Inc. ($912.98M), Browning West LP ($642.79M), BlackRock Inc. ($578.13M), FMR LLC ($427.95M), Boston Partners ($418.71M), D1 Capital Partners L.P. ($378.33M), and Beutel Goodman & Co Ltd. ($241.32M).Learn more on TPX's institutional investors.

What percentage of Tempur Sealy International stock is owned by institutional investors?

99.86% of Tempur Sealy International stock is owned by institutional investors. Learn more on TPX's institutional investor holdings.

Which institutional investors have been buying Tempur Sealy International stock?

Of the 262 institutional investors that purchased Tempur Sealy International stock in the last 24 months, the following investors and hedge funds have bought the highest volume of shares: D1 Capital Partners L.P. ($6.42M), Lone Pine Capital LLC ($4.77M), FMR LLC ($2.96M), Linonia Partnership LP ($2.38M), Norges Bank ($2.38M), Browning West LP ($2.32M), and Barclays PLC ($1.82M).

How much institutional buying is happening at Tempur Sealy International?

Institutional investors have bought a total of 49,925,939 shares in the last 24 months. This purchase volume represents approximately $1.84B in transactions.

Which Tempur Sealy International major shareholders have been selling company stock?

Of the 177 institutional investors that sold Tempur Sealy International stock in the last 24 months, the following investors and hedge funds have sold the highest volume of shares: FMR LLC ($8.56M), Boston Partners ($4.57M), Eminence Capital LP ($2.52M), Citigroup Inc. ($1.54M), FIL Ltd ($1.38M), Charles Schwab Investment Management Inc. ($984.08K), and Coliseum Capital Management LLC ($960.80K).

How much institutional selling is happening at Tempur Sealy International?

Institutional investors have sold a total of 31,378,987 shares in the last 24 months. This volume of shares sold represents approximately $1.27B in transactions.


This page (NYSE:TPX) was last updated on 6/25/2024 by MarketBeat.com Staff

From Our Partners